Laukaa, Finland
Kieli:  Suomi
CurCond
Päivitetty13/08/2022 11:22 
 

Lähistön Lentoasemien Säätiloja:

 

EFJY - Jyvaskyla (mil/C,) Finland
Etäisyys Sääasemalta: PKo 21km
Päivitetty: 13/08/2022 10:50
Selkeätä
Selkeätä
 Tuulen suunta EKa
Tuuli: EKa 7 km/h
Lämpötila: 17°C
Kastepiste: 6°C
Ilmankosteus: 49%
Ilmanpaine: 1024 hPa
Yhteenveto: Selkeätä
Näkyvyys: Enemmän Kuin 10 km
2022/08/13 07:50 EFJY 130750Z AUTO 15004KT 090V190 CAVOK 17/06 Q1024
EFHA - Halli (fin-Afb), Finland
Etäisyys Sääasemalta: Lo 56km
Päivitetty: 13/08/2022 10:50
Selkeätä
Selkeätä
 Tuulen suunta varies
Tuuli: varies 4 km/h
Lämpötila: 19°C
Kastepiste: 9°C
Ilmankosteus: 52%
Ilmanpaine: 1023 hPa
Yhteenveto: Selkeätä
Näkyvyys: Enemmän Kuin 10 km
2022/08/13 07:50 EFHA 130750Z AUTO VRB02KT CAVOK 19/09 Q1023
EFMI - Mikkeli, Finland
Etäisyys Sääasemalta: IKa 105km
Päivitetty: 13/08/2022 10:50
Selkeätä
Selkeätä
 Tuulen suunta LLu
Tuuli: LLu 6 km/h
Lämpötila: 18°C
Kastepiste: 9°C
Ilmankosteus: 56%
Ilmanpaine: 1024 hPa
Yhteenveto: Selkeätä
Näkyvyys: Enemmän Kuin 10 km
2022/08/13 07:50 EFMI 130750Z AUTO 29003KT 240V360 CAVOK 18/09 Q1024
 
EFTP - Tampere/Pirkkala, Finland
Etäisyys Sääasemalta: Lo 135km
Päivitetty: 13/08/2022 11:20
Selkeätä
Selkeätä
 Tuulen suunta varies
Tuuli: varies 6 km/h
Lämpötila: 20°C
Kastepiste: 12°C
Ilmankosteus: 60%
Ilmanpaine: 1023 hPa
Yhteenveto: Selkeätä
Näkyvyys: Enemmän Kuin 10 km
2022/08/13 08:20 EFTP 130820Z AUTO VRB03KT CAVOK 20/12 Q1023
EFKU - Kuopio (mil/Civ), Finland
Etäisyys Sääasemalta: Ko 146km
Päivitetty: 13/08/2022 10:50
Selkeätä
Selkeätä
 Tuulen suunta Ko
Tuuli: Ko 7 km/h
Lämpötila: 17°C
Kastepiste: 10°C
Ilmankosteus: 64%
Ilmanpaine: 1024 hPa
Yhteenveto: Selkeätä
Näkyvyys: Enemmän Kuin 10 km
2022/08/13 07:50 EFKU 130750Z AUTO 05004KT 360V110 CAVOK 17/10 Q1024
EFSI - Seinajoki-Ilmajo, Finland
Etäisyys Sääasemalta: LLu 149km
Päivitetty: 13/08/2022 10:50
Selkeätä
Selkeätä
 Tuulen suunta E
Tuuli: E 9 km/h
Lämpötila: 17°C
Kastepiste: 9°C
Ilmankosteus: 59%
Ilmanpaine: 1023 hPa
Yhteenveto: Selkeätä
Näkyvyys: Enemmän Kuin 10 km
2022/08/13 07:50 EFSI 130750Z AUTO 18005KT 130V220 CAVOK 17/09 Q1023